Time;durP1;ratioP1;P1;durP2;ratioP2;P2;SDS_P1;SDS_P2;PMS_P1;PMS_P2;Temp;Humidity;BMP_temperature;BMP_pressure;BME280_temperature;BME280_humidity;BME280_pressure;Samples;Min_cycle;Max_cycle;Signal;HPM_P1;HPM_P2
2022/10/20 00:01:00;;;;;;;17.88;12.10;;;10.80;99.90;;;;;;4990761;28;38096;-79
2022/10/20 00:03:27;;;;;;;20.98;13.75;;;10.80;99.90;;;;;;4989839;28;36224;-78
2022/10/20 00:05:54;;;;;;;18.92;12.68;;;10.80;99.90;;;;;;4984298;28;37886;-79
2022/10/20 00:08:20;;;;;;;25.08;13.60;;;10.80;99.90;;;;;;4988119;28;37868;-80
2022/10/20 00:10:54;;;;;;;18.15;12.88;;;10.90;99.90;;;;;;5008100;28;40171;-80
2022/10/20 00:13:20;;;;;;;18.93;12.50;;;10.80;99.90;;;;;;4978507;28;36678;-80
2022/10/20 00:15:50;;;;;;;21.85;13.18;;;10.80;99.90;;;;;;4989094;28;37683;-80
2022/10/20 00:18:16;;;;;;;22.50;13.38;;;10.80;99.90;;;;;;4988305;28;39739;-80
2022/10/20 00:20:43;;;;;;;21.48;14.05;;;10.80;99.90;;;;;;4991016;28;38437;-80
2022/10/20 00:23:09;;;;;;;20.45;13.40;;;10.80;99.90;;;;;;4991945;28;36411;-80
2022/10/20 00:25:35;;;;;;;23.80;14.27;;;10.80;99.90;;;;;;4991290;28;37548;-80
2022/10/20 00:28:01;;;;;;;22.77;14.57;;;10.80;99.90;;;;;;4988434;28;37347;-80
2022/10/20 00:30:27;;;;;;;21.20;13.68;;;10.70;99.90;;;;;;4978476;28;37707;-80
2022/10/20 00:32:53;;;;;;;19.35;13.52;;;10.70;99.90;;;;;;4988166;28;36734;-80
2022/10/20 00:35:19;;;;;;;16.73;13.07;;;10.80;99.90;;;;;;4999125;28;38442;-80
2022/10/20 00:37:45;;;;;;;24.10;14.00;;;10.80;99.90;;;;;;4994399;28;39475;-80
2022/10/20 00:40:12;;;;;;;23.90;14.30;;;10.80;99.90;;;;;;4983277;28;38099;-79
2022/10/20 00:42:43;;;;;;;21.80;14.30;;;10.80;99.90;;;;;;5003356;28;37619;-79
2022/10/20 00:45:15;;;;;;;19.60;13.02;;;10.80;99.90;;;;;;4983132;28;38777;-79
2022/10/20 00:47:48;;;;;;;22.88;14.52;;;10.80;99.90;;;;;;5003631;28;38954;-79
2022/10/20 00:50:16;;;;;;;18.23;13.98;;;10.80;99.90;;;;;;4999678;28;38330;-79
2022/10/20 00:52:44;;;;;;;24.33;13.90;;;10.80;99.90;;;;;;4983255;28;36641;-80
2022/10/20 00:55:14;;;;;;;21.63;13.83;;;10.80;99.90;;;;;;4982394;28;38232;-79
2022/10/20 00:57:44;;;;;;;18.73;13.87;;;10.80;99.90;;;;;;4993106;28;39197;-79
2022/10/20 01:00:11;;;;;;;25.27;15.88;;;10.80;99.90;;;;;;4989774;28;37279;-80
2022/10/20 01:02:37;;;;;;;22.03;14.50;;;10.80;99.90;;;;;;5435799;23;47097;-82
2022/10/20 01:05:36;;;;;;;20.15;15.77;;;10.80;99.90;;;;;;5020343;28;38894;-81
2022/10/20 01:08:02;;;;;;;22.10;15.10;;;10.70;99.90;;;;;;5008342;28;49031;-82
2022/10/20 01:10:39;;;;;;;18.90;14.53;;;10.80;99.90;;;;;;5105220;23;37076;-81
2022/10/20 01:19:43;;;;;;;21.87;16.27;;;10.70;99.90;;;;;;5042267;28;50829;-80
2022/10/20 01:28:44;;;;;;;30.13;16.70;;;10.70;99.90;;;;;;5320223;23;20035;-82
2022/10/20 01:31:29;;;;;;;27.67;17.50;;;10.70;99.90;;;;;;4985232;28;38709;-81
2022/10/20 01:34:26;;;;;;;24.97;17.73;;;10.70;99.90;;;;;;4970228;28;39720;-81
2022/10/20 01:39:48;;;;;;;26.03;18.00;;;10.60;99.90;;;;;;5359954;23;20034;-83
2022/10/20 01:42:19;;;;;;;27.50;17.83;;;10.70;99.90;;;;;;5037773;28;39319;-82
2022/10/20 01:44:47;;;;;;;26.67;16.73;;;10.70;99.90;;;;;;5019188;28;38624;-82
2022/10/20 01:47:14;;;;;;;23.87;16.70;;;10.70;99.90;;;;;;5696897;23;37442;-82
2022/10/20 01:49:43;;;;;;;30.70;17.60;;;10.70;99.90;;;;;;5021428;28;40005;-81
2022/10/20 01:52:10;;;;;;;29.80;18.08;;;10.60;99.90;;;;;;5555116;23;40305;-79
2022/10/20 02:10:51;;;;;;;28.73;18.50;;;10.60;99.90;;;;;;5029434;28;50610;-81
2022/10/20 02:13:21;;;;;;;30.47;19.57;;;10.70;99.90;;;;;;5022376;28;38940;-81
2022/10/20 02:16:39;;;;;;;31.60;19.73;;;10.60;99.90;;;;;;5030628;28;39383;-82
2022/10/20 02:19:16;;;;;;;28.90;20.00;;;10.70;99.90;;;;;;5030269;28;49339;-79
2022/10/20 02:21:45;;;;;;;27.47;18.30;;;10.60;99.90;;;;;;5019752;28;37726;-82
2022/10/20 02:30:13;;;;;;;28.55;19.92;;;10.60;99.90;;;;;;5151063;23;20039;-81
2022/10/20 02:35:58;;;;;;;32.90;20.23;;;10.70;99.90;;;;;;5347715;23;20042;-81
2022/10/20 02:41:09;;;;;;;31.90;20.23;;;10.60;99.90;;;;;;4886215;26;20058;-81
2022/10/20 02:43:44;;;;;;;33.07;20.40;;;10.70;99.90;;;;;;5019580;28;38052;-82
2022/10/20 02:46:27;;;;;;;32.33;21.23;;;10.70;99.90;;;;;;4956074;28;41272;-81
2022/10/20 02:49:15;;;;;;;31.30;20.40;;;10.70;99.90;;;;;;4985099;28;38404;-82
2022/10/20 02:52:43;;;;;;;28.87;20.77;;;10.70;99.90;;;;;;5008079;28;49642;-82
2022/10/20 02:58:53;;;;;;;27.83;19.20;;;10.70;99.90;;;;;;5330976;23;50623;-82
2022/10/20 03:05:08;;;;;;;34.73;21.27;;;10.70;99.90;;;;;;5495985;23;36676;31
2022/10/20 03:07:34;;;;;;;28.65;20.00;;;10.80;99.90;;;;;;5033118;28;49733;-82
2022/10/20 03:18:48;;;;;;;30.77;19.92;;;10.80;99.90;;;;;;5903313;23;20046;-81
2022/10/20 03:25:04;;;;;;;36.30;21.30;;;10.80;99.90;;;;;;4968501;28;40623;-81
2022/10/20 03:28:06;;;;;;;32.87;20.53;;;10.80;99.90;;;;;;5007812;28;40005;-81
2022/10/20 03:33:28;;;;;;;30.37;20.90;;;10.80;99.90;;;;;;5575546;23;20068;-81
2022/10/20 03:38:36;;;;;;;37.42;21.33;;;10.80;99.90;;;;;;5530046;23;20292;-83
2022/10/20 03:41:08;;;;;;;29.90;21.77;;;10.90;99.90;;;;;;5038112;28;38749;-82
2022/10/20 03:43:34;;;;;;;33.83;21.17;;;10.90;99.90;;;;;;5580810;23;48495;-81
2022/10/20 03:49:01;;;;;;;33.42;22.08;;;10.90;99.90;;;;;;5620625;23;20046;-83
2022/10/20 03:54:04;;;;;;;34.90;22.17;;;10.90;99.90;;;;;;5612529;23;20047;-81
2022/10/20 04:02:44;;;;;;;34.70;22.95;;;10.90;99.90;;;;;;5039680;23;20054;-82
2022/10/20 04:07:54;;;;;;;37.17;23.38;;;10.90;99.90;;;;;;5227487;23;20037;-80
2022/10/20 04:13:01;;;;;;;36.83;22.92;;;10.90;99.90;;;;;;5946303;23;20058;-81
2022/10/20 04:24:21;;;;;;;;;;;11.00;99.90;;;;;;5921227;23;20056;-81
2022/10/20 04:29:20;;;;;;;35.30;23.10;;;11.00;99.90;;;;;;4996514;28;20043;-81
2022/10/20 04:32:02;;;;;;;35.47;24.07;;;11.00;99.90;;;;;;4976149;28;38322;-80
2022/10/20 04:34:29;;;;;;;35.80;24.92;;;10.90;99.90;;;;;;5049846;23;48199;-81
2022/10/20 04:37:14;;;;;;;38.75;23.70;;;11.00;99.90;;;;;;4997006;28;38759;-82
2022/10/20 04:45:01;;;;;;;35.28;22.35;;;10.90;99.90;;;;;;5216497;23;20045;-81
2022/10/20 04:47:32;;;;;;;37.90;25.27;;;10.90;99.90;;;;;;5719813;23;38987;-81
2022/10/20 04:50:27;;;;;;;38.13;25.20;;;10.90;99.90;;;;;;5019432;28;39358;-81
2022/10/20 04:55:34;;;;;;;42.47;25.67;;;10.90;99.90;;;;;;5017518;23;20054;-81
2022/10/20 04:58:02;;;;;;;45.85;27.90;;;10.90;99.90;;;;;;4984458;28;38855;-82
2022/10/20 05:01:04;;;;;;;42.08;26.50;;;10.90;99.90;;;;;;5004901;28;48764;-82
2022/10/20 05:06:12;;;;;;;44.05;25.30;;;11.00;99.90;;;;;;5596360;23;20058;-81
2022/10/20 05:08:39;;;;;;;47.33;27.50;;;11.00;99.90;;;;;;5037408;28;41835;-82
2022/10/20 05:11:06;;;;;;;42.55;26.80;;;11.00;99.90;;;;;;5146085;23;38741;-80
2022/10/20 05:21:55;;;;;;;39.28;26.05;;;11.10;99.90;;;;;;5713090;23;20035;-84
2022/10/20 05:24:24;;;;;;;45.28;26.80;;;11.10;99.90;;;;;;5117839;23;38956;-82
2022/10/20 05:33:11;;;;;;;43.92;27.92;;;11.10;99.90;;;;;;5227163;23;20064;-81
2022/10/20 05:38:14;;;;;;;43.80;26.98;;;11.00;99.90;;;;;;5138677;23;20053;-82
2022/10/20 05:40:42;;;;;;;38.47;24.10;;;11.00;99.90;;;;;;4996340;28;38752;-81
2022/10/20 05:43:16;;;;;;;33.55;24.77;;;11.00;99.90;;;;;;4931860;28;38712;-82
2022/10/20 05:45:49;;;;;;;40.88;26.50;;;11.00;99.90;;;;;;5689450;23;39241;-80
2022/10/20 05:48:52;;;;;;;43.70;27.55;;;10.90;99.90;;;;;;4979553;28;36488;-85
2022/10/20 05:51:26;;;;;;;44.33;26.83;;;10.90;99.90;;;;;;5127217;23;40249;-81
2022/10/20 05:56:33;;;;;;;56.38;29.58;;;10.90;99.90;;;;;;5664724;23;20050;-81
2022/10/20 05:59:01;;;;;;;49.27;28.60;;;10.90;99.90;;;;;;5647301;23;37143;-82
2022/10/20 06:01:39;;;;;;;52.40;28.88;;;11.00;99.90;;;;;;5804214;23;39238;31
2022/10/20 06:04:07;;;;;;;40.42;26.00;;;11.00;99.90;;;;;;5024800;23;38763;-82
2022/10/20 06:06:35;;;;;;;51.05;30.25;;;11.00;99.90;;;;;;5020366;28;39959;-81
2022/10/20 06:09:11;;;;;;;48.67;29.97;;;11.00;99.90;;;;;;5003578;28;36060;-82
2022/10/20 06:11:43;;;;;;;53.03;30.08;;;11.10;99.90;;;;;;5101954;23;49500;-82
2022/10/20 06:14:42;;;;;;;44.47;29.03;;;11.00;99.90;;;;;;5009337;28;38977;-82
2022/10/20 06:19:50;;;;;;;44.17;28.10;;;11.10;99.90;;;;;;6056650;23;20026;-81
2022/10/20 06:22:49;;;;;;;40.78;26.05;;;11.00;99.90;;;;;;5105679;23;38802;-82
2022/10/20 06:39:56;;;;;;;48.42;28.48;;;11.10;99.90;;;;;;5749394;23;20051;-80
2022/10/20 06:42:33;;;;;;;45.88;28.42;;;11.10;99.90;;;;;;5014944;28;36955;-82
2022/10/20 06:45:02;;;;;;;36.45;24.77;;;11.10;99.90;;;;;;5013977;28;38493;-81
2022/10/20 06:56:09;;;;;;;42.60;26.50;;;11.30;99.90;;;;;;5851639;23;20558;-80
2022/10/20 06:59:27;;;;;;;43.63;27.45;;;11.30;99.90;;;;;;5035423;28;47251;-81
2022/10/20 07:04:30;;;;;;;41.65;25.95;;;11.30;99.90;;;;;;5431738;23;19922;-83
2022/10/20 07:06:56;;;;;;;37.90;25.58;;;11.30;99.90;;;;;;5448652;23;39214;-81
2022/10/20 07:11:59;;;;;;;47.08;27.60;;;11.40;99.90;;;;;;5324882;23;20044;-82
2022/10/20 07:27:32;;;;;;;31.75;22.27;;;11.60;99.90;;;;;;5938767;23;20028;-83
2022/10/20 07:35:53;;;;;;;29.73;23.05;;;11.80;99.90;;;;;;5232560;23;20039;-82
2022/10/20 07:38:20;;;;;;;42.85;24.50;;;11.80;99.90;;;;;;5343237;23;39261;-80
2022/10/20 07:43:29;;;;;;;32.97;22.33;;;11.90;99.90;;;;;;5428619;23;20037;-80
2022/10/20 07:45:55;;;;;;;30.48;22.85;;;12.00;99.90;;;;;;5313895;23;37188;-80
2022/10/20 07:48:22;;;;;;;29.58;21.00;;;12.00;99.90;;;;;;5213821;23;35897;-81
2022/10/20 08:08:57;;;;;;;27.92;20.95;;;12.50;99.90;;;;;;4975612;28;20047;-82
2022/10/20 08:19:37;;;;;;;25.25;19.50;;;12.60;99.90;;;;;;5177569;23;20051;-80
2022/10/20 08:22:04;;;;;;;27.50;18.25;;;12.60;99.90;;;;;;5565474;23;38852;-82
2022/10/20 08:30:17;;;;;;;22.65;18.33;;;12.80;99.90;;;;;;5135611;23;20035;-82
2022/10/20 08:32:43;;;;;;;23.70;18.50;;;12.90;99.90;;;;;;5460719;23;38931;-80
2022/10/20 08:41:22;;;;;;;25.75;18.08;;;13.00;99.90;;;;;;5639910;23;50792;-81
2022/10/20 08:46:51;;;;;;;23.58;17.23;;;13.00;99.90;;;;;;5032109;23;20081;-82
2022/10/20 08:49:44;;;;;;;27.23;18.35;;;13.10;99.90;;;;;;5005159;28;38528;-84
2022/10/20 08:57:42;;;;;;;21.80;17.77;;;13.30;99.90;;;;;;4963742;28;20036;-81
2022/10/20 09:02:47;;;;;;;25.25;17.88;;;13.40;99.90;;;;;;5716111;23;20040;-83
2022/10/20 09:05:43;;;;;;;22.83;17.20;;;13.50;99.90;;;;;;5893182;23;20075;-81
2022/10/20 09:10:51;;;;;;;21.65;15.30;;;13.70;99.90;;;;;;5477307;23;20034;-81
2022/10/20 09:42:50;;;;;;;21.40;16.37;;;14.00;99.90;;;;;;6106197;23;20036;31
2022/10/20 10:08:44;;;;;;;18.27;15.38;;;14.40;99.90;;;;;;5657275;23;19910;-84
2022/10/20 10:11:19;;;;;;;22.75;17.52;;;14.40;99.90;;;;;;4979143;28;38223;-82
2022/10/20 10:19:07;;;;;;;27.20;19.35;;;14.40;99.90;;;;;;5973238;23;20066;-82
2022/10/20 10:22:12;;;;;;;27.58;18.23;;;14.30;99.90;;;;;;4995744;28;49637;-84
2022/10/20 10:27:34;;;;;;;29.73;20.13;;;14.40;99.90;;;;;;5608036;23;20039;-82
2022/10/20 10:30:28;;;;;;;32.67;19.75;;;14.40;99.90;;;;;;5015498;28;39599;-81
2022/10/20 10:36:06;;;;;;;27.38;20.23;;;14.50;99.90;;;;;;5918842;23;20052;-82
2022/10/20 10:41:40;;;;;;;24.60;18.67;;;14.60;99.90;;;;;;5339176;23;20099;-82
2022/10/20 10:44:40;;;;;;;25.70;18.15;;;14.60;99.90;;;;;;4969738;28;38870;-81
2022/10/20 10:47:35;;;;;;;24.42;17.55;;;14.50;99.90;;;;;;4919611;28;36595;-82
2022/10/20 10:50:20;;;;;;;22.13;16.70;;;14.60;99.90;;;;;;4988662;28;39246;-81
2022/10/20 10:53:30;;;;;;;26.52;18.58;;;14.60;99.90;;;;;;5000889;28;38455;-81
2022/10/20 10:56:21;;;;;;;24.38;16.98;;;14.60;99.90;;;;;;4969194;28;49981;-81
2022/10/20 10:59:02;;;;;;;26.27;20.23;;;14.70;99.90;;;;;;5009060;28;50497;-82
2022/10/20 11:01:50;;;;;;;20.83;16.98;;;14.70;99.90;;;;;;5004621;28;39585;-81
2022/10/20 11:04:55;;;;;;;24.40;18.38;;;14.70;99.90;;;;;;4987761;28;38729;-82
2022/10/20 11:13:25;;;;;;;27.88;18.95;;;14.90;99.90;;;;;;5805332;23;20037;-81
2022/10/20 11:22:13;;;;;;;28.25;18.90;;;14.90;99.90;;;;;;5796720;23;20022;31
2022/10/20 11:24:51;;;;;;;29.55;18.48;;;14.80;99.90;;;;;;4993325;28;38334;-82
2022/10/20 11:30:08;;;;;;;24.80;18.98;;;14.70;99.90;;;;;;4994248;28;20061;-80
2022/10/20 11:32:41;;;;;;;22.48;19.48;;;14.70;99.90;;;;;;4991396;28;49501;-80
2022/10/20 11:35:21;;;;;;;30.17;20.58;;;14.60;99.90;;;;;;4976935;28;40162;-80
2022/10/20 11:38:30;;;;;;;32.63;20.80;;;14.60;99.90;;;;;;4974497;28;39623;-81
2022/10/20 11:41:09;;;;;;;33.78;21.90;;;14.60;99.90;;;;;;4980281;28;48206;-80
2022/10/20 11:43:58;;;;;;;34.35;23.40;;;14.70;99.90;;;;;;4981682;28;49166;-81
2022/10/20 11:46:50;;;;;;;30.27;19.88;;;14.70;99.90;;;;;;4949514;28;40696;-81
2022/10/20 11:49:18;;;;;;;34.13;21.92;;;14.70;99.90;;;;;;4956984;28;38020;-82
2022/10/20 11:51:59;;;;;;;28.83;19.85;;;14.70;99.90;;;;;;4971783;28;38749;-80
2022/10/20 11:54:37;;;;;;;30.63;21.25;;;14.70;99.90;;;;;;4971169;28;36887;-81
2022/10/20 11:57:14;;;;;;;29.17;20.98;;;14.70;99.90;;;;;;4961301;28;37904;-81
2022/10/20 12:00:20;;;;;;;30.55;21.40;;;14.70;99.90;;;;;;4967364;28;39981;-82
2022/10/20 12:03:25;;;;;;;40.17;25.83;;;14.70;99.90;;;;;;4939521;28;48149;-81
2022/10/20 12:06:33;;;;;;;29.67;23.38;;;14.70;99.90;;;;;;4964506;28;47850;-81
2022/10/20 12:09:11;;;;;;;38.72;24.75;;;14.70;99.90;;;;;;4942698;28;50044;-80
2022/10/20 12:12:31;;;;;;;28.95;21.38;;;14.70;99.90;;;;;;4939365;28;48620;-82
2022/10/20 12:15:32;;;;;;;37.28;27.48;;;14.70;99.90;;;;;;4957540;28;47578;-81
2022/10/20 12:18:24;;;;;;;26.33;21.75;;;14.80;99.90;;;;;;4968493;28;49311;-81
2022/10/20 12:21:01;;;;;;;31.80;22.58;;;14.80;99.90;;;;;;4969270;28;38020;-81
2022/10/20 12:24:01;;;;;;;30.08;22.63;;;14.80;99.90;;;;;;4967014;28;41108;-81
2022/10/20 12:30:37;;;;;;;37.80;24.65;;;14.90;99.90;;;;;;4969714;28;20042;-83
2022/10/20 12:50:35;;;;;;;21.13;17.83;;;15.30;99.90;;;;;;5457904;23;40388;-81
2022/10/20 12:53:36;;;;;;;22.25;18.17;;;15.50;99.90;;;;;;4968655;28;50161;-80
2022/10/20 13:05:34;;;;;;;19.67;16.23;;;16.00;99.90;;;;;;5335463;23;20027;-82
2022/10/20 13:12:19;;;;;;;20.58;17.40;;;16.20;99.90;;;;;;5000043;28;50731;-82
2022/10/20 13:18:50;;;;;;;28.27;18.47;;;16.40;99.90;;;;;;4960543;28;49920;-82
2022/10/20 13:28:17;;;;;;;23.95;16.58;;;16.80;99.90;;;;;;5575592;23;40871;-82
2022/10/20 13:31:14;;;;;;;;;;;16.90;99.90;;;;;;5025683;28;49859;-83
2022/10/20 13:34:27;;;;;;;22.30;16.30;;;17.00;99.90;;;;;;5004361;28;39889;-81
2022/10/20 13:37:19;;;;;;;26.83;17.05;;;17.10;99.90;;;;;;4982787;28;49803;-80
2022/10/20 13:40:10;;;;;;;24.13;16.08;;;17.20;99.90;;;;;;4999270;28;48888;-80
2022/10/20 13:43:08;;;;;;;24.13;16.30;;;17.10;99.90;;;;;;4982598;28;47216;-81
2022/10/20 13:45:49;;;;;;;21.63;17.08;;;17.10;99.90;;;;;;4997925;28;48549;-81
2022/10/20 13:48:54;;;;;;;23.88;16.67;;;17.10;99.90;;;;;;4977054;28;36488;-82
2022/10/20 13:51:26;;;;;;;25.17;16.38;;;17.30;99.90;;;;;;4912589;29;37725;-82
2022/10/20 13:53:55;;;;;;;;;;;17.60;99.90;;;;;;4918473;28;37996;-81
2022/10/20 13:56:39;;;;;;;22.52;14.60;;;17.70;99.90;;;;;;4937469;28;42219;-82
2022/10/20 13:59:19;;;;;;;17.70;14.65;;;17.70;99.90;;;;;;4979922;28;37737;-81
2022/10/20 14:01:58;;;;;;;17.50;13.50;;;17.80;99.90;;;;;;4982308;28;47488;-80
2022/10/20 14:04:31;;;;;;;20.40;13.60;;;17.90;99.90;;;;;;4989418;28;37242;-81
2022/10/20 14:07:08;;;;;;;17.02;11.35;;;18.00;99.90;;;;;;4991473;28;39943;-80
2022/10/20 14:09:35;;;;;;;17.83;10.95;;;17.90;99.90;;;;;;4971688;28;47072;-80
2022/10/20 14:12:29;;;;;;;18.88;10.70;;;18.00;99.90;;;;;;4980638;28;37077;-81
2022/10/20 14:14:58;;;;;;;17.70;11.25;;;18.00;99.90;;;;;;4996535;28;48861;-81
2022/10/20 14:17:25;;;;;;;16.52;10.38;;;18.00;99.90;;;;;;4981331;28;40121;-81
2022/10/20 14:20:08;;;;;;;21.40;11.27;;;18.00;99.90;;;;;;4996098;28;40195;-81
2022/10/20 14:22:34;;;;;;;17.05;10.73;;;17.90;99.90;;;;;;4974324;28;47392;-82
2022/10/20 14:25:04;;;;;;;16.70;9.52;;;17.90;99.90;;;;;;4985752;28;36797;-82
2022/10/20 14:27:32;;;;;;;14.00;9.60;;;17.90;99.90;;;;;;4971246;28;47524;-82
2022/10/20 14:30:02;;;;;;;15.13;10.07;;;17.90;99.90;;;;;;4997510;28;40177;-82
2022/10/20 14:32:35;;;;;;;18.58;10.10;;;18.00;99.90;;;;;;4989057;28;39488;-80
2022/10/20 14:35:15;;;;;;;17.27;9.18;;;18.00;99.90;;;;;;4981344;28;37082;-83
2022/10/20 14:37:50;;;;;;;17.35;9.55;;;18.00;99.90;;;;;;4967149;28;47163;-83
2022/10/20 14:40:23;;;;;;;18.33;9.32;;;18.00;99.90;;;;;;4965107;28;37464;-84
2022/10/20 14:42:51;;;;;;;19.45;8.90;;;18.10;99.90;;;;;;4966256;28;38550;-85
2022/10/20 14:45:25;;;;;;;15.32;8.98;;;18.20;99.90;;;;;;4970933;28;36084;-84
2022/10/20 14:47:53;;;;;;;18.75;9.70;;;18.30;99.90;;;;;;4972422;28;37612;-83
2022/10/20 14:50:30;;;;;;;14.20;9.88;;;18.40;99.90;;;;;;4967849;28;38477;-84
2022/10/20 14:52:56;;;;;;;13.10;8.75;;;18.40;99.90;;;;;;4990412;28;38655;-84
2022/10/20 14:55:34;;;;;;;17.42;8.60;;;18.40;99.90;;;;;;4987582;28;37077;-84
2022/10/20 14:58:01;;;;;;;14.52;9.48;;;18.40;99.90;;;;;;4971778;28;37698;-84
2022/10/20 15:00:34;;;;;;;16.58;8.85;;;18.50;99.90;;;;;;4983892;28;40702;-83
2022/10/20 15:03:05;;;;;;;16.15;9.25;;;18.40;99.90;;;;;;4977821;28;37654;-83
2022/10/20 15:05:38;;;;;;;15.65;10.27;;;18.40;99.90;;;;;;4992312;28;48356;-83
2022/10/20 15:08:18;;;;;;;16.17;9.75;;;18.40;99.90;;;;;;4972238;28;38058;-83
2022/10/20 15:10:44;;;;;;;16.55;9.50;;;18.30;99.90;;;;;;4989139;28;39234;-84
2022/10/20 15:13:31;;;;;;;13.45;9.25;;;18.30;99.90;;;;;;4974701;28;37255;-84
2022/10/20 15:16:00;;;;;;;15.40;8.75;;;18.30;99.90;;;;;;4991026;28;36614;-85
2022/10/20 15:18:27;;;;;;;17.13;8.88;;;18.30;99.90;;;;;;4972615;28;39709;-84
2022/10/20 15:20:54;;;;;;;14.90;8.93;;;18.40;99.90;;;;;;4993785;28;38608;-84
2022/10/20 15:23:23;;;;;;;15.32;8.30;;;18.30;99.90;;;;;;4981188;28;37729;-85
2022/10/20 15:25:56;;;;;;;15.77;8.23;;;18.30;99.90;;;;;;4986260;28;38060;-85
2022/10/20 15:28:29;;;;;;;14.95;7.75;;;18.30;99.90;;;;;;4983880;28;40990;-85
2022/10/20 15:30:56;;;;;;;12.45;8.02;;;18.30;99.90;;;;;;4985828;28;39998;-85
2022/10/20 15:33:22;;;;;;;12.45;7.13;;;18.30;99.90;;;;;;5001951;28;39980;-86
2022/10/20 15:35:49;;;;;;;13.52;6.88;;;18.30;99.90;;;;;;5001029;28;38004;-86
2022/10/20 15:38:15;;;;;;;12.45;6.93;;;18.30;99.90;;;;;;4974650;28;37803;-84
2022/10/20 15:40:41;;;;;;;14.05;6.05;;;18.30;99.90;;;;;;4992333;28;38520;-83
2022/10/20 15:43:12;;;;;;;8.65;6.00;;;18.30;99.90;;;;;;4979758;28;37170;-83
2022/10/20 15:45:43;;;;;;;12.80;5.28;;;18.30;99.90;;;;;;4998729;28;36950;-83
2022/10/20 15:48:09;;;;;;;10.93;4.55;;;18.40;99.90;;;;;;4987743;28;39278;-83
2022/10/20 15:50:37;;;;;;;10.23;4.43;;;18.40;99.90;;;;;;5005458;28;38481;-83
2022/10/20 15:53:04;;;;;;;8.80;3.65;;;18.40;99.90;;;;;;4999486;28;39242;-85
2022/10/20 15:55:33;;;;;;;6.53;4.40;;;18.40;99.90;;;;;;4976942;28;38970;-84
2022/10/20 15:57:59;;;;;;;7.97;4.95;;;18.50;99.90;;;;;;4979185;28;39345;-84
2022/10/20 16:00:27;;;;;;;10.55;4.30;;;18.50;99.90;;;;;;5004001;28;38484;-84
2022/10/20 16:02:53;;;;;;;9.70;4.90;;;18.40;99.90;;;;;;4989826;28;39129;-84
2022/10/20 16:05:22;;;;;;;10.52;4.30;;;18.30;99.90;;;;;;4992806;28;38210;-85
2022/10/20 16:07:49;;;;;;;8.90;4.25;;;18.20;99.90;;;;;;4995052;28;38738;-85
2022/10/20 16:10:15;;;;;;;6.15;4.00;;;18.10;99.90;;;;;;5006384;28;39609;-84
2022/10/20 16:12:41;;;;;;;8.10;3.83;;;18.00;99.90;;;;;;4993872;28;38913;-85
2022/10/20 16:15:09;;;;;;;9.60;4.28;;;18.00;99.90;;;;;;4985539;28;38549;-85
2022/10/20 16:17:35;;;;;;;7.68;4.53;;;17.90;99.90;;;;;;5010132;28;38933;-84
2022/10/20 16:20:02;;;;;;;5.82;4.10;;;17.90;99.90;;;;;;4971907;28;39395;-86
2022/10/20 16:22:28;;;;;;;8.73;4.25;;;17.80;99.90;;;;;;5000520;28;38928;-85
2022/10/20 16:24:55;;;;;;;6.68;4.07;;;17.70;99.90;;;;;;4999294;28;37077;-85
2022/10/20 16:27:21;;;;;;;8.10;4.75;;;17.60;99.90;;;;;;4991404;28;42285;-86
2022/10/20 16:29:49;;;;;;;6.55;4.57;;;17.50;99.90;;;;;;4986612;28;38915;-87
2022/10/20 16:32:15;;;;;;;10.10;4.93;;;17.50;99.90;;;;;;4982788;28;39483;-86
2022/10/20 16:34:41;;;;;;;10.77;6.00;;;17.40;99.90;;;;;;4986953;28;36347;-86
2022/10/20 16:37:07;;;;;;;8.05;4.90;;;17.40;99.90;;;;;;5008574;28;40170;-85
2022/10/20 16:39:33;;;;;;;11.02;5.15;;;17.40;99.90;;;;;;5010188;28;39998;-85
2022/10/20 16:42:00;;;;;;;10.82;6.15;;;17.40;99.90;;;;;;4991082;28;39692;-84
2022/10/20 16:44:26;;;;;;;7.03;4.93;;;17.40;99.90;;;;;;4983809;28;37559;-87
2022/10/20 16:46:52;;;;;;;8.90;5.63;;;17.30;99.90;;;;;;4982440;28;40821;-85
2022/10/20 16:49:18;;;;;;;7.68;5.03;;;17.30;99.90;;;;;;4979026;28;39112;-84
2022/10/20 16:51:44;;;;;;;10.32;5.90;;;17.20;99.90;;;;;;4984734;28;40088;-84
2022/10/20 16:54:10;;;;;;;7.40;5.35;;;17.20;99.90;;;;;;4977262;28;37703;-85
2022/10/20 16:56:37;;;;;;;11.20;4.97;;;17.10;99.90;;;;;;4988766;28;39418;-84
2022/10/20 16:59:03;;;;;;;9.23;4.68;;;17.10;99.90;;;;;;4992395;28;37624;-84
2022/10/20 17:01:30;;;;;;;8.20;5.22;;;17.10;99.90;;;;;;5009297;28;42103;-83
2022/10/20 17:03:56;;;;;;;9.05;4.68;;;17.00;99.90;;;;;;5001465;28;36538;-82
2022/10/20 17:06:25;;;;;;;8.48;5.40;;;17.00;99.90;;;;;;4984359;28;39477;-85
2022/10/20 17:08:52;;;;;;;7.35;4.82;;;16.90;99.90;;;;;;4976051;28;41810;-84
2022/10/20 17:11:29;;;;;;;9.32;5.80;;;16.80;99.90;;;;;;5004606;28;38784;-83
2022/10/20 17:13:56;;;;;;;9.40;5.47;;;16.70;99.90;;;;;;4981415;28;38093;-85
2022/10/20 17:16:27;;;;;;;9.50;6.38;;;16.60;99.90;;;;;;4988159;28;38986;-85
2022/10/20 17:18:54;;;;;;;9.98;6.78;;;16.40;99.90;;;;;;4990123;28;37714;-84
2022/10/20 17:21:20;;;;;;;15.65;11.45;;;16.30;99.90;;;;;;4982606;28;37067;-84
2022/10/20 17:23:47;;;;;;;13.38;10.02;;;16.20;99.90;;;;;;4984435;28;35625;-84
2022/10/20 17:26:19;;;;;;;8.98;7.30;;;16.10;99.90;;;;;;5004268;28;38897;-84
2022/10/20 17:28:46;;;;;;;10.43;7.53;;;16.00;99.90;;;;;;4977710;28;426809;-83
2022/10/20 17:31:14;;;;;;;9.45;6.75;;;15.80;99.90;;;;;;4986665;28;37019;-82
2022/10/20 17:33:41;;;;;;;11.88;8.93;;;15.80;99.90;;;;;;5011076;28;36464;-81
2022/10/20 17:38:58;;;;;;;12.50;8.82;;;15.60;99.90;;;;;;5714152;23;20055;-80
2022/10/20 17:41:45;;;;;;;11.02;8.45;;;15.60;99.90;;;;;;4976122;28;36949;-80
2022/10/20 17:53:44;;;;;;;15.13;11.20;;;15.50;99.90;;;;;;5068798;23;20030;-81
2022/10/20 18:00:29;;;;;;;15.88;11.30;;;15.50;99.90;;;;;;5024272;28;40589;-81
2022/10/20 18:03:26;;;;;;;18.13;12.63;;;15.50;99.90;;;;;;4981719;28;50193;-81
2022/10/20 18:11:21;;;;;;;16.90;12.38;;;15.70;99.90;;;;;;5650293;23;20051;-83
2022/10/20 18:13:47;;;;;;;21.23;13.73;;;15.70;99.90;;;;;;4998822;28;48657;-83
2022/10/20 18:18:59;;;;;;;17.02;12.48;;;15.60;99.90;;;;;;5124841;23;20054;-81
2022/10/20 18:21:48;;;;;;;23.38;15.05;;;15.60;99.90;;;;;;4987232;28;37959;-80
2022/10/20 18:24:25;;;;;;;;;;;15.60;99.90;;;;;;5026695;28;41471;-82
2022/10/20 18:30:16;;;;;;;20.70;13.38;;;15.60;99.90;;;;;;5523952;23;38608;-81
2022/10/20 18:32:58;;;;;;;19.88;13.25;;;15.60;99.90;;;;;;5019250;28;37808;-79
2022/10/20 18:41:53;;;;;;;20.10;11.63;;;15.60;99.90;;;;;;5462291;23;20053;-85
2022/10/20 18:44:19;;;;;;;22.25;15.10;;;15.50;99.90;;;;;;4947639;28;37358;-79
2022/10/20 18:46:46;;;;;;;18.23;12.88;;;15.50;99.90;;;;;;4928314;29;38082;-80
2022/10/20 18:52:03;;;;;;;17.83;13.10;;;15.50;99.90;;;;;;5007869;23;20042;-81
2022/10/20 18:54:31;;;;;;;19.50;13.38;;;15.40;99.90;;;;;;5009256;28;49220;-81
2022/10/20 18:56:57;;;;;;;20.40;14.85;;;15.40;99.90;;;;;;4990422;28;38960;-80
2022/10/20 18:59:23;;;;;;;17.20;13.50;;;15.40;99.90;;;;;;4986586;28;38199;-81
2022/10/20 19:01:55;;;;;;;21.25;15.35;;;15.30;99.90;;;;;;4988547;28;36517;-80
2022/10/20 19:04:21;;;;;;;19.63;12.52;;;15.30;99.90;;;;;;4990499;28;40773;-81
2022/10/20 19:06:48;;;;;;;15.70;13.07;;;15.20;99.90;;;;;;4995576;28;39423;-81
2022/10/20 19:09:18;;;;;;;20.80;13.30;;;15.20;99.90;;;;;;4991966;28;38261;-80
2022/10/20 19:11:46;;;;;;;17.08;13.57;;;15.20;99.90;;;;;;4974447;28;38470;-80
2022/10/20 19:14:18;;;;;;;21.60;15.00;;;15.20;99.90;;;;;;4974979;28;38595;-80
2022/10/20 19:16:49;;;;;;;;;;;15.20;99.90;;;;;;4975674;28;38127;-80
2022/10/20 19:19:16;;;;;;;26.67;18.67;;;15.30;99.90;;;;;;5004053;28;39693;-81
2022/10/20 19:21:42;;;;;;;30.15;19.83;;;15.30;99.90;;;;;;5023963;28;37542;-81
2022/10/20 19:24:22;;;;;;;42.00;24.25;;;15.50;99.90;;;;;;4982593;28;38506;-80
2022/10/20 19:27:00;;;;;;;30.98;21.92;;;15.60;99.90;;;;;;4985393;28;40658;-80
2022/10/20 19:29:27;;;;;;;36.78;23.77;;;15.70;99.90;;;;;;5000926;28;39759;-80
2022/10/20 19:34:42;;;;;;;30.27;21.33;;;15.80;99.90;;;;;;5165939;23;20030;-81
2022/10/20 19:37:09;;;;;;;34.55;22.40;;;15.90;99.90;;;;;;4991960;28;38029;-80
2022/10/20 19:39:38;;;;;;;28.05;19.90;;;15.80;99.90;;;;;;5023534;28;38568;-81
2022/10/20 19:42:06;;;;;;;35.58;20.80;;;15.90;99.90;;;;;;4995861;28;37219;-79
2022/10/20 19:44:41;;;;;;;34.22;21.77;;;15.90;99.90;;;;;;5004731;28;37361;-81
2022/10/20 19:47:08;;;;;;;34.03;21.10;;;16.00;99.90;;;;;;5027913;28;40263;-80
2022/10/20 19:49:43;;;;;;;23.88;17.55;;;15.90;99.90;;;;;;4998113;28;37556;-81